sensor_id;sensor_type;location;lat;lon;timestamp;pressure;altitude;pressure_sealevel;temperature;humidity
57990;BME280;58373;51.824;5.564;2023-04-28T00:01:29;101313.75;;;8.56;58.46
57990;BME280;58373;51.824;5.564;2023-04-28T00:03:55;101308.66;;;8.54;58.77
57990;BME280;58373;51.824;5.564;2023-04-28T00:06:21;101301.56;;;8.58;58.44
57990;BME280;58373;51.824;5.564;2023-04-28T00:08:46;101301.25;;;8.49;59.49
57990;BME280;58373;51.824;5.564;2023-04-28T00:11:12;101305.47;;;8.50;59.60
57990;BME280;58373;51.824;5.564;2023-04-28T00:13:37;101288.31;;;8.49;59.24
57990;BME280;58373;51.824;5.564;2023-04-28T00:16:02;101288.50;;;8.46;59.95
57990;BME280;58373;51.824;5.564;2023-04-28T00:18:27;101281.69;;;8.45;60.17
57990;BME280;58373;51.824;5.564;2023-04-28T00:20:53;101274.94;;;8.43;60.32
57990;BME280;58373;51.824;5.564;2023-04-28T00:23:19;101274.66;;;8.47;59.91
57990;BME280;58373;51.824;5.564;2023-04-28T00:25:44;101287.84;;;8.43;60.65
57990;BME280;58373;51.824;5.564;2023-04-28T00:28:14;101281.88;;;8.42;60.81
57990;BME280;58373;51.824;5.564;2023-04-28T00:30:39;101264.72;;;8.41;59.95
57990;BME280;58373;51.824;5.564;2023-04-28T00:33:04;101265.84;;;8.37;60.74
57990;BME280;58373;51.824;5.564;2023-04-28T00:35:30;101275.41;;;8.35;60.63
57990;BME280;58373;51.824;5.564;2023-04-28T00:37:55;101271.94;;;8.36;61.03
57990;BME280;58373;51.824;5.564;2023-04-28T00:40:20;101266.00;;;8.34;61.22
57990;BME280;58373;51.824;5.564;2023-04-28T00:42:46;101254.75;;;8.35;61.38
57990;BME280;58373;51.824;5.564;2023-04-28T00:45:11;101244.41;;;8.35;61.60
57990;BME280;58373;51.824;5.564;2023-04-28T00:47:36;101239.22;;;8.35;61.00
57990;BME280;58373;51.824;5.564;2023-04-28T00:50:02;101235.94;;;8.33;61.37
57990;BME280;58373;51.824;5.564;2023-04-28T00:52:29;101232.53;;;8.33;61.08
57990;BME280;58373;51.824;5.564;2023-04-28T00:54:55;101223.94;;;8.32;61.74
57990;BME280;58373;51.824;5.564;2023-04-28T00:57:21;101229.94;;;8.33;61.26
57990;BME280;58373;51.824;5.564;2023-04-28T00:59:46;101218.78;;;8.32;61.20
57990;BME280;58373;51.824;5.564;2023-04-28T01:02:12;101220.53;;;8.32;61.07
57990;BME280;58373;51.824;5.564;2023-04-28T01:04:41;101221.44;;;8.31;61.48
57990;BME280;58373;51.824;5.564;2023-04-28T01:07:07;101215.66;;;8.27;61.71
57990;BME280;58373;51.824;5.564;2023-04-28T01:09:32;101212.16;;;8.28;61.49
57990;BME280;58373;51.824;5.564;2023-04-28T01:11:57;101209.56;;;8.28;62.27
57990;BME280;58373;51.824;5.564;2023-04-28T01:14:22;101203.47;;;8.29;61.93
57990;BME280;58373;51.824;5.564;2023-04-28T01:16:47;101210.28;;;8.30;61.20
57990;BME280;58373;51.824;5.564;2023-04-28T01:19:18;101211.94;;;8.31;61.43
57990;BME280;58373;51.824;5.564;2023-04-28T01:21:45;101210.19;;;8.32;61.32
57990;BME280;58373;51.824;5.564;2023-04-28T01:24:10;101198.81;;;8.34;61.30
57990;BME280;58373;51.824;5.564;2023-04-28T01:26:35;101196.41;;;8.31;61.23
57990;BME280;58373;51.824;5.564;2023-04-28T01:29:01;101197.06;;;8.35;61.28
57990;BME280;58373;51.824;5.564;2023-04-28T01:31:26;101189.41;;;8.33;61.46
57990;BME280;58373;51.824;5.564;2023-04-28T01:33:51;101179.25;;;8.30;62.46
57990;BME280;58373;51.824;5.564;2023-04-28T01:36:16;101187.75;;;8.32;61.32
57990;BME280;58373;51.824;5.564;2023-04-28T01:38:42;101190.53;;;8.29;62.03
57990;BME280;58373;51.824;5.564;2023-04-28T01:41:07;101187.13;;;8.29;62.20
57990;BME280;58373;51.824;5.564;2023-04-28T01:43:32;101186.31;;;8.28;62.12
57990;BME280;58373;51.824;5.564;2023-04-28T01:45:57;101189.59;;;8.30;62.71
57990;BME280;58373;51.824;5.564;2023-04-28T01:48:22;101186.09;;;8.31;62.83
57990;BME280;58373;51.824;5.564;2023-04-28T01:50:48;101171.44;;;8.32;62.17
57990;BME280;58373;51.824;5.564;2023-04-28T01:53:13;101168.22;;;8.28;62.21
57990;BME280;58373;51.824;5.564;2023-04-28T01:55:38;101166.56;;;8.27;62.42
57990;BME280;58373;51.824;5.564;2023-04-28T01:58:03;101167.69;;;8.23;62.25
57990;BME280;58373;51.824;5.564;2023-04-28T02:00:28;101171.19;;;8.22;62.18
57990;BME280;58373;51.824;5.564;2023-04-28T02:02:54;101173.25;;;8.17;62.67
57990;BME280;58373;51.824;5.564;2023-04-28T02:05:19;101166.44;;;8.16;62.85
57990;BME280;58373;51.824;5.564;2023-04-28T02:07:44;101164.88;;;8.13;62.45
57990;BME280;58373;51.824;5.564;2023-04-28T02:10:11;101165.81;;;8.12;62.51
57990;BME280;58373;51.824;5.564;2023-04-28T02:12:36;101146.91;;;8.12;62.52
57990;BME280;58373;51.824;5.564;2023-04-28T02:15:01;101143.59;;;8.10;62.76
57990;BME280;58373;51.824;5.564;2023-04-28T02:17:28;101135.84;;;8.10;62.35
57990;BME280;58373;51.824;5.564;2023-04-28T02:19:54;101144.72;;;8.06;62.48
57990;BME280;58373;51.824;5.564;2023-04-28T02:22:20;101148.44;;;8.02;63.08
57990;BME280;58373;51.824;5.564;2023-04-28T02:24:45;101149.88;;;8.06;62.92
57990;BME280;58373;51.824;5.564;2023-04-28T02:27:10;101142.53;;;7.99;63.80
57990;BME280;58373;51.824;5.564;2023-04-28T02:29:36;101136.75;;;7.96;63.52
57990;BME280;58373;51.824;5.564;2023-04-28T02:32:01;101132.50;;;7.95;63.45
57990;BME280;58373;51.824;5.564;2023-04-28T02:34:27;101130.03;;;7.93;64.21
57990;BME280;58373;51.824;5.564;2023-04-28T02:36:52;101123.00;;;7.95;63.98
57990;BME280;58373;51.824;5.564;2023-04-28T02:39:18;101120.94;;;8.01;63.31
57990;BME280;58373;51.824;5.564;2023-04-28T02:41:45;101109.16;;;7.96;63.82
57990;BME280;58373;51.824;5.564;2023-04-28T02:44:11;101096.66;;;7.90;65.01
57990;BME280;58373;51.824;5.564;2023-04-28T02:46:36;101088.06;;;7.90;65.32
57990;BME280;58373;51.824;5.564;2023-04-28T02:49:01;101083.94;;;7.87;65.85
57990;BME280;58373;51.824;5.564;2023-04-28T02:51:26;101081.06;;;7.92;64.96
57990;BME280;58373;51.824;5.564;2023-04-28T02:53:52;101079.19;;;7.81;64.92
57990;BME280;58373;51.824;5.564;2023-04-28T02:56:17;101081.03;;;7.79;65.56
57990;BME280;58373;51.824;5.564;2023-04-28T02:58:42;101081.03;;;7.79;65.31
57990;BME280;58373;51.824;5.564;2023-04-28T03:01:08;101079.38;;;7.78;66.12
57990;BME280;58373;51.824;5.564;2023-04-28T03:03:33;101074.22;;;7.78;65.89
57990;BME280;58373;51.824;5.564;2023-04-28T03:05:58;101079.38;;;7.78;65.27
57990;BME280;58373;51.824;5.564;2023-04-28T03:08:23;101068.13;;;7.79;65.96
57990;BME280;58373;51.824;5.564;2023-04-28T03:10:49;101074.03;;;7.81;65.97
57990;BME280;58373;51.824;5.564;2023-04-28T03:13:14;101069.81;;;7.80;65.96
57990;BME280;58373;51.824;5.564;2023-04-28T03:15:39;101065.53;;;7.79;66.26
57990;BME280;58373;51.824;5.564;2023-04-28T03:18:05;101068.88;;;7.81;66.18
57990;BME280;58373;51.824;5.564;2023-04-28T03:20:30;101058.53;;;7.81;65.62
57990;BME280;58373;51.824;5.564;2023-04-28T03:22:55;101066.28;;;7.81;65.78
57990;BME280;58373;51.824;5.564;2023-04-28T03:25:20;101064.53;;;7.82;65.78
57990;BME280;58373;51.824;5.564;2023-04-28T03:27:45;101058.53;;;7.81;66.05
57990;BME280;58373;51.824;5.564;2023-04-28T03:30:11;101072.16;;;7.83;66.02
57990;BME280;58373;51.824;5.564;2023-04-28T03:32:36;101062.66;;;7.84;67.61
57990;BME280;58373;51.824;5.564;2023-04-28T03:35:01;101063.47;;;7.84;65.91
57990;BME280;58373;51.824;5.564;2023-04-28T03:37:26;101052.34;;;7.84;65.86
57990;BME280;58373;51.824;5.564;2023-04-28T03:39:52;101056.66;;;7.83;66.74
57990;BME280;58373;51.824;5.564;2023-04-28T03:42:17;101048.22;;;7.81;66.73
57990;BME280;58373;51.824;5.564;2023-04-28T03:44:42;101045.53;;;7.83;66.58
57990;BME280;58373;51.824;5.564;2023-04-28T03:47:07;101039.31;;;7.85;66.66
57990;BME280;58373;51.824;5.564;2023-04-28T03:49:32;101033.66;;;7.80;67.51
57990;BME280;58373;51.824;5.564;2023-04-28T03:51:57;101037.88;;;7.81;67.33
57990;BME280;58373;51.824;5.564;2023-04-28T03:54:23;101043.03;;;7.81;67.27
57990;BME280;58373;51.824;5.564;2023-04-28T03:56:48;101043.03;;;7.81;67.38
57990;BME280;58373;51.824;5.564;2023-04-28T03:59:13;101039.53;;;7.82;67.70
57990;BME280;58373;51.824;5.564;2023-04-28T04:01:38;101032.72;;;7.81;68.46
57990;BME280;58373;51.824;5.564;2023-04-28T04:04:03;101032.72;;;7.81;67.69
57990;BME280;58373;51.824;5.564;2023-04-28T04:06:29;101026.63;;;7.82;68.04
57990;BME280;58373;51.824;5.564;2023-04-28T04:08:54;101020.53;;;7.83;68.34
57990;BME280;58373;51.824;5.564;2023-04-28T04:11:20;101022.38;;;7.81;69.02
57990;BME280;58373;51.824;5.564;2023-04-28T04:13:45;101020.53;;;7.83;68.25
57990;BME280;58373;51.824;5.564;2023-04-28T04:16:10;101018.88;;;7.82;68.91
57990;BME280;58373;51.824;5.564;2023-04-28T04:18:36;101018.88;;;7.82;68.42
57990;BME280;58373;51.824;5.564;2023-04-28T04:21:01;101014.41;;;7.84;68.86
57990;BME280;58373;51.824;5.564;2023-04-28T04:23:27;101019.59;;;7.84;68.83
57990;BME280;58373;51.824;5.564;2023-04-28T04:25:52;101018.88;;;7.82;69.82
57990;BME280;58373;51.824;5.564;2023-04-28T04:28:17;101010.91;;;7.85;69.44
57990;BME280;58373;51.824;5.564;2023-04-28T04:30:42;101013.72;;;7.82;69.33
57990;BME280;58373;51.824;5.564;2023-04-28T04:33:08;101005.97;;;7.82;69.93
57990;BME280;58373;51.824;5.564;2023-04-28T04:35:34;101006.69;;;7.84;69.89
57990;BME280;58373;51.824;5.564;2023-04-28T04:37:59;101011.66;;;7.87;69.26
57990;BME280;58373;51.824;5.564;2023-04-28T04:40:25;101001.31;;;7.87;69.79
57990;BME280;58373;51.824;5.564;2023-04-28T04:42:50;101000.56;;;7.85;70.18
57990;BME280;58373;51.824;5.564;2023-04-28T04:45:16;100999.66;;;7.86;69.54
57990;BME280;58373;51.824;5.564;2023-04-28T04:47:41;101006.59;;;7.86;70.95
57990;BME280;58373;51.824;5.564;2023-04-28T04:50:07;101003.16;;;7.85;71.13
57990;BME280;58373;51.824;5.564;2023-04-28T04:52:32;101001.50;;;7.84;71.60
57990;BME280;58373;51.824;5.564;2023-04-28T04:54:58;101004.00;;;7.86;71.12
57990;BME280;58373;51.824;5.564;2023-04-28T04:57:23;101006.47;;;7.87;70.92
57990;BME280;58373;51.824;5.564;2023-04-28T04:59:48;101009.78;;;7.89;70.10
57990;BME280;58373;51.824;5.564;2023-04-28T05:02:13;101013.09;;;7.91;71.97
57990;BME280;58373;51.824;5.564;2023-04-28T05:04:39;101006.06;;;7.93;72.15
57990;BME280;58373;51.824;5.564;2023-04-28T05:07:04;100996.44;;;7.95;73.54
57990;BME280;58373;51.824;5.564;2023-04-28T05:09:29;100992.03;;;7.97;74.86
57990;BME280;58373;51.824;5.564;2023-04-28T05:11:55;100993.56;;;8.00;75.52
57990;BME280;58373;51.824;5.564;2023-04-28T05:14:21;100995.00;;;8.04;75.87
57990;BME280;58373;51.824;5.564;2023-04-28T05:16:47;100979.41;;;8.06;75.38
57990;BME280;58373;51.824;5.564;2023-04-28T05:19:12;100981.69;;;8.10;74.96
57990;BME280;58373;51.824;5.564;2023-04-28T05:21:37;100989.13;;;8.15;74.64
57990;BME280;58373;51.824;5.564;2023-04-28T05:24:02;100988.88;;;8.18;76.38
57990;BME280;58373;51.824;5.564;2023-04-28T05:26:27;100983.28;;;8.24;76.45
57990;BME280;58373;51.824;5.564;2023-04-28T05:28:53;100970.19;;;8.27;77.67
57990;BME280;58373;51.824;5.564;2023-04-28T05:31:18;100967.38;;;8.30;77.38
57990;BME280;58373;51.824;5.564;2023-04-28T05:33:43;100967.38;;;8.30;78.22
57990;BME280;58373;51.824;5.564;2023-04-28T05:36:08;100957.66;;;8.34;77.21
57990;BME280;58373;51.824;5.564;2023-04-28T05:38:33;100951.47;;;8.36;77.49
57990;BME280;58373;51.824;5.564;2023-04-28T05:41:00;100940.69;;;8.42;78.40
57990;BME280;58373;51.824;5.564;2023-04-28T05:43:25;100939.78;;;8.43;80.69
57990;BME280;58373;51.824;5.564;2023-04-28T05:45:50;100954.34;;;8.44;81.59
57990;BME280;58373;51.824;5.564;2023-04-28T05:48:16;100966.34;;;8.45;81.50
57990;BME280;58373;51.824;5.564;2023-04-28T05:50:41;100973.16;;;8.46;81.75
57990;BME280;58373;51.824;5.564;2023-04-28T05:53:06;100979.97;;;8.47;79.50
57990;BME280;58373;51.824;5.564;2023-04-28T05:55:31;100992.81;;;8.49;81.66
57990;BME280;58373;51.824;5.564;2023-04-28T05:57:58;100995.28;;;8.50;81.78
57990;BME280;58373;51.824;5.564;2023-04-28T06:00:23;100989.16;;;8.51;81.10
57990;BME280;58373;51.824;5.564;2023-04-28T06:02:49;100982.03;;;8.55;81.94
57990;BME280;58373;51.824;5.564;2023-04-28T06:05:14;100975.81;;;8.58;80.61
57990;BME280;58373;51.824;5.564;2023-04-28T06:07:40;100971.25;;;8.61;81.73
57990;BME280;58373;51.824;5.564;2023-04-28T06:10:05;100958.91;;;8.65;81.22
57990;BME280;58373;51.824;5.564;2023-04-28T06:12:31;100952.59;;;8.69;83.59
57990;BME280;58373;51.824;5.564;2023-04-28T06:14:56;100945.53;;;8.71;82.27
57990;BME280;58373;51.824;5.564;2023-04-28T06:17:21;100947.81;;;8.75;83.18
57990;BME280;58373;51.824;5.564;2023-04-28T06:19:47;100960.63;;;8.77;84.47
57990;BME280;58373;51.824;5.564;2023-04-28T06:22:12;100955.22;;;8.80;83.54
57990;BME280;58373;51.824;5.564;2023-04-28T06:24:37;100945.38;;;8.85;82.43
57990;BME280;58373;51.824;5.564;2023-04-28T06:27:02;100950.31;;;8.88;82.73
57990;BME280;58373;51.824;5.564;2023-04-28T06:29:28;100949.16;;;8.92;82.83
57990;BME280;58373;51.824;5.564;2023-04-28T06:31:53;100957.44;;;8.97;85.98
57990;BME280;58373;51.824;5.564;2023-04-28T06:34:21;100953.69;;;9.01;84.88
57990;BME280;58373;51.824;5.564;2023-04-28T06:36:47;100954.19;;;9.07;84.68
57990;BME280;58373;51.824;5.564;2023-04-28T06:39:12;100949.38;;;9.13;83.95
57990;BME280;58373;51.824;5.564;2023-04-28T06:41:37;100952.34;;;9.20;83.29
57990;BME280;58373;51.824;5.564;2023-04-28T06:44:03;100951.28;;;9.22;83.41
57990;BME280;58373;51.824;5.564;2023-04-28T06:46:28;100950.94;;;9.27;81.06
57990;BME280;58373;51.824;5.564;2023-04-28T06:48:54;100948.13;;;9.30;82.59
57990;BME280;58373;51.824;5.564;2023-04-28T06:51:19;100939.19;;;9.34;83.21
57990;BME280;58373;51.824;5.564;2023-04-28T06:53:44;100942.25;;;9.39;82.89
57990;BME280;58373;51.824;5.564;2023-04-28T06:56:09;100948.88;;;9.43;84.17
57990;BME280;58373;51.824;5.564;2023-04-28T06:58:35;100948.41;;;9.49;84.42
57990;BME280;58373;51.824;5.564;2023-04-28T07:01:00;100948.19;;;9.52;84.52
57990;BME280;58373;51.824;5.564;2023-04-28T07:03:27;100953.13;;;9.55;83.37
57990;BME280;58373;51.824;5.564;2023-04-28T07:05:53;100951.94;;;9.60;85.20
57990;BME280;58373;51.824;5.564;2023-04-28T07:08:18;100949.13;;;9.63;86.16
57990;BME280;58373;51.824;5.564;2023-04-28T07:10:43;100955.59;;;9.68;84.13
57990;BME280;58373;51.824;5.564;2023-04-28T07:13:08;100958.78;;;9.72;84.80
57990;BME280;58373;51.824;5.564;2023-04-28T07:15:33;100951.50;;;9.77;86.14
57990;BME280;58373;51.824;5.564;2023-04-28T07:17:59;100949.59;;;9.79;85.02
57990;BME280;58373;51.824;5.564;2023-04-28T07:20:24;100940.66;;;9.83;84.34
57990;BME280;58373;51.824;5.564;2023-04-28T07:22:49;100945.38;;;9.89;85.31
57990;BME280;58373;51.824;5.564;2023-04-28T07:25:15;100942.44;;;9.94;87.34
57990;BME280;58373;51.824;5.564;2023-04-28T07:27:40;100939.59;;;9.97;86.66
57990;BME280;58373;51.824;5.564;2023-04-28T07:30:05;100923.69;;;10.01;85.80
57990;BME280;58373;51.824;5.564;2023-04-28T07:32:31;100924.16;;;10.06;84.92
57990;BME280;58373;51.824;5.564;2023-04-28T07:34:56;100935.00;;;10.11;85.64
57990;BME280;58373;51.824;5.564;2023-04-28T07:37:21;100932.88;;;10.17;85.21
57990;BME280;58373;51.824;5.564;2023-04-28T07:39:47;100927.44;;;10.20;85.24
57990;BME280;58373;51.824;5.564;2023-04-28T07:42:12;100923.72;;;10.24;85.58
57990;BME280;58373;51.824;5.564;2023-04-28T07:44:37;100930.31;;;10.28;84.89
57990;BME280;58373;51.824;5.564;2023-04-28T07:47:02;100925.59;;;10.33;85.37
57990;BME280;58373;51.824;5.564;2023-04-28T07:49:28;100920.59;;;10.41;86.30
57990;BME280;58373;51.824;5.564;2023-04-28T07:51:53;100925.31;;;10.47;85.03
57990;BME280;58373;51.824;5.564;2023-04-28T07:54:19;100919.63;;;10.53;85.77
57990;BME280;58373;51.824;5.564;2023-04-28T07:56:44;100913.72;;;10.62;86.85
57990;BME280;58373;51.824;5.564;2023-04-28T07:59:10;100912.97;;;10.72;85.29
57990;BME280;58373;51.824;5.564;2023-04-28T08:01:35;100922.59;;;10.81;85.37
57990;BME280;58373;51.824;5.564;2023-04-28T08:04:00;100930.84;;;10.86;85.10
57990;BME280;58373;51.824;5.564;2023-04-28T08:06:26;100928.13;;;10.87;86.50
57990;BME280;58373;51.824;5.564;2023-04-28T08:08:51;100933.91;;;10.91;85.58
57990;BME280;58373;51.824;5.564;2023-04-28T08:11:16;100935.28;;;10.95;87.13
57990;BME280;58373;51.824;5.564;2023-04-28T08:13:41;100929.16;;;10.96;87.84
57990;BME280;58373;51.824;5.564;2023-04-28T08:16:06;100935.28;;;10.95;87.64
57990;BME280;58373;51.824;5.564;2023-04-28T08:18:32;100932.94;;;10.92;86.45
57990;BME280;58373;51.824;5.564;2023-04-28T08:20:57;100935.53;;;10.92;86.67
57990;BME280;58373;51.824;5.564;2023-04-28T08:23:22;100925.16;;;10.92;87.47
57990;BME280;58373;51.824;5.564;2023-04-28T08:25:52;100928.44;;;10.94;88.28
57990;BME280;58373;51.824;5.564;2023-04-28T08:28:17;100931.75;;;10.96;86.84
57990;BME280;58373;51.824;5.564;2023-04-28T08:30:42;100936.94;;;10.96;87.77
57990;BME280;58373;51.824;5.564;2023-04-28T08:33:08;100924.66;;;10.98;88.62
57990;BME280;58373;51.824;5.564;2023-04-28T08:35:33;100931.25;;;11.02;89.46
57990;BME280;58373;51.824;5.564;2023-04-28T08:37:58;100928.38;;;11.05;88.37
57990;BME280;58373;51.824;5.564;2023-04-28T08:40:23;100930.75;;;11.08;89.27
57990;BME280;58373;51.824;5.564;2023-04-28T08:42:50;100923.63;;;11.10;90.77
57990;BME280;58373;51.824;5.564;2023-04-28T08:45:16;100923.41;;;11.13;90.54
57990;BME280;58373;51.824;5.564;2023-04-28T08:47:41;100931.63;;;11.19;91.67
57990;BME280;58373;51.824;5.564;2023-04-28T08:50:10;100932.06;;;11.24;92.07
57990;BME280;58373;51.824;5.564;2023-04-28T08:52:36;100930.19;;;11.26;90.23
57990;BME280;58373;51.824;5.564;2023-04-28T08:55:06;100933.00;;;11.23;89.81
57990;BME280;58373;51.824;5.564;2023-04-28T08:57:34;100932.19;;;11.22;91.35
57990;BME280;58373;51.824;5.564;2023-04-28T09:00:00;100937.97;;;11.26;91.44
57990;BME280;58373;51.824;5.564;2023-04-28T09:02:25;100934.41;;;11.27;90.80
57990;BME280;58373;51.824;5.564;2023-04-28T09:04:50;100937.69;;;11.29;92.40
57990;BME280;58373;51.824;5.564;2023-04-28T09:07:15;100937.69;;;11.29;92.10
57990;BME280;58373;51.824;5.564;2023-04-28T09:09:41;100937.69;;;11.29;91.59
57990;BME280;58373;51.824;5.564;2023-04-28T09:12:06;100927.31;;;11.29;92.13
57990;BME280;58373;51.824;5.564;2023-04-28T09:14:35;100928.72;;;11.33;92.69
57990;BME280;58373;51.824;5.564;2023-04-28T09:17:00;100924.91;;;11.37;91.77
57990;BME280;58373;51.824;5.564;2023-04-28T09:19:33;100915.06;;;11.40;91.83
57990;BME280;58373;51.824;5.564;2023-04-28T09:22:00;100921.66;;;11.44;92.98
57990;BME280;58373;51.824;5.564;2023-04-28T09:26:54;100927.53;;;11.47;90.16
57990;BME280;58373;51.824;5.564;2023-04-28T09:29:19;100925.53;;;11.50;92.31
57990;BME280;58373;51.824;5.564;2023-04-28T09:31:44;100914.91;;;11.53;92.58
57990;BME280;58373;51.824;5.564;2023-04-28T09:34:10;100913.56;;;11.59;93.29
57990;BME280;58373;51.824;5.564;2023-04-28T09:36:36;100915.75;;;11.63;93.46
57990;BME280;58373;51.824;5.564;2023-04-28T09:39:01;100922.34;;;11.67;93.84
57990;BME280;58373;51.824;5.564;2023-04-28T09:41:40;100919.34;;;11.72;93.67
57990;BME280;58373;51.824;5.564;2023-04-28T09:44:12;100919.94;;;11.76;93.56
57990;BME280;58373;51.824;5.564;2023-04-28T09:46:37;100919.66;;;11.79;92.63
57990;BME280;58373;51.824;5.564;2023-04-28T09:49:03;100916.91;;;11.80;92.27
57990;BME280;58373;51.824;5.564;2023-04-28T09:51:28;100917.50;;;11.84;93.57
57990;BME280;58373;51.824;5.564;2023-04-28T09:53:54;100912.19;;;11.85;93.36
57990;BME280;58373;51.824;5.564;2023-04-28T09:56:23;100912.75;;;11.89;93.91
57990;BME280;58373;51.824;5.564;2023-04-28T09:58:51;100916.75;;;11.93;94.43
57990;BME280;58373;51.824;5.564;2023-04-28T10:01:17;100913.72;;;11.98;92.95
57990;BME280;58373;51.824;5.564;2023-04-28T10:03:43;100917.84;;;12.00;96.29
57990;BME280;58373;51.824;5.564;2023-04-28T10:06:08;100919.34;;;12.03;95.79
57990;BME280;58373;51.824;5.564;2023-04-28T10:08:33;100916.50;;;12.06;94.64
57990;BME280;58373;51.824;5.564;2023-04-28T10:10:59;100910.34;;;12.07;95.69
57990;BME280;58373;51.824;5.564;2023-04-28T10:13:25;100915.41;;;12.08;96.21
57990;BME280;58373;51.824;5.564;2023-04-28T10:15:51;100908.31;;;12.10;95.21
57990;BME280;58373;51.824;5.564;2023-04-28T10:18:19;100911.31;;;12.15;95.97
57990;BME280;58373;51.824;5.564;2023-04-28T10:20:47;100911.72;;;12.20;97.66
57990;BME280;58373;51.824;5.564;2023-04-28T10:26:11;100910.53;;;12.25;96.33
57990;BME280;58373;51.824;5.564;2023-04-28T10:28:47;100919.00;;;12.27;95.92
57990;BME280;58373;51.824;5.564;2023-04-28T10:31:19;100920.66;;;12.28;95.56
57990;BME280;58373;51.824;5.564;2023-04-28T10:33:45;100919.00;;;12.27;97.12
57990;BME280;58373;51.824;5.564;2023-04-28T10:36:17;100913.78;;;12.27;96.56
57990;BME280;58373;51.824;5.564;2023-04-28T10:39:09;100919.97;;;12.26;97.53
57990;BME280;58373;51.824;5.564;2023-04-28T10:41:36;100918.31;;;12.25;97.78
57990;BME280;58373;51.824;5.564;2023-04-28T10:44:05;100911.09;;;12.28;98.11
57990;BME280;58373;51.824;5.564;2023-04-28T10:47:19;100910.81;;;12.31;98.13
57990;BME280;58373;51.824;5.564;2023-04-28T10:57:46;100910.53;;;12.44;98.29
57990;BME280;58373;51.824;5.564;2023-04-28T11:00:27;100918.75;;;12.49;99.09
57990;BME280;58373;51.824;5.564;2023-04-28T11:02:54;100909.75;;;12.53;98.85
57990;BME280;58373;51.824;5.564;2023-04-28T11:05:19;100911.94;;;12.58;99.10
57990;BME280;58373;51.824;5.564;2023-04-28T11:11:10;100916.59;;;12.64;99.56
57990;BME280;58373;51.824;5.564;2023-04-28T11:13:29;100915.50;;;12.66;99.39
57990;BME280;58373;51.824;5.564;2023-04-28T11:16:04;100920.69;;;12.66;99.03
57990;BME280;58373;51.824;5.564;2023-04-28T11:19:15;100920.69;;;12.66;98.98
57990;BME280;58373;51.824;5.564;2023-04-28T11:21:16;100906.19;;;12.64;99.07
57990;BME280;58373;51.824;5.564;2023-04-28T11:23:41;100907.69;;;12.66;99.51
57990;BME280;58373;51.824;5.564;2023-04-28T11:26:07;100909.75;;;12.63;99.66
57990;BME280;58373;51.824;5.564;2023-04-28T11:28:32;100909.88;;;12.61;99.67
57990;BME280;58373;51.824;5.564;2023-04-28T11:31:14;100917.41;;;12.64;99.85
57990;BME280;58373;51.824;5.564;2023-04-28T11:33:50;100918.09;;;12.66;99.27
57990;BME280;58373;51.824;5.564;2023-04-28T11:38:48;100918.81;;;12.68;99.42
57990;BME280;58373;51.824;5.564;2023-04-28T11:41:13;100911.00;;;12.68;99.44
57990;BME280;58373;51.824;5.564;2023-04-28T11:43:39;100920.69;;;12.66;100.00
57990;BME280;58373;51.824;5.564;2023-04-28T11:46:06;100911.41;;;12.64;100.00
57990;BME280;58373;51.824;5.564;2023-04-28T11:48:31;100919.06;;;12.65;99.79
57990;BME280;58373;51.824;5.564;2023-04-28T11:50:56;100919.06;;;12.65;100.00
57990;BME280;58373;51.824;5.564;2023-04-28T11:53:39;100918.09;;;12.66;99.99
57990;BME280;58373;51.824;5.564;2023-04-28T11:56:04;100919.06;;;12.65;99.91
57990;BME280;58373;51.824;5.564;2023-04-28T11:58:32;100921.81;;;12.64;99.88
57990;BME280;58373;51.824;5.564;2023-04-28T12:01:10;100929.75;;;12.62;100.00
57990;BME280;58373;51.824;5.564;2023-04-28T12:03:42;100928.09;;;12.61;99.98
57990;BME280;58373;51.824;5.564;2023-04-28T12:06:07;100926.19;;;12.63;100.00
57990;BME280;58373;51.824;5.564;2023-04-28T12:08:33;100934.66;;;12.65;100.00
57990;BME280;58373;51.824;5.564;2023-04-28T12:13:37;100930.44;;;12.64;100.00
57990;BME280;58373;51.824;5.564;2023-04-28T12:16:03;100934.66;;;12.65;100.00
57990;BME280;58373;51.824;5.564;2023-04-28T12:18:30;100934.66;;;12.65;100.00
57990;BME280;58373;51.824;5.564;2023-04-28T12:20:55;100933.59;;;12.68;100.00
57990;BME280;58373;51.824;5.564;2023-04-28T12:23:33;100929.47;;;12.65;100.00
57990;BME280;58373;51.824;5.564;2023-04-28T12:26:00;100937.97;;;12.67;100.00
57990;BME280;58373;51.824;5.564;2023-04-28T12:28:38;100935.22;;;12.69;100.00
57990;BME280;58373;51.824;5.564;2023-04-28T12:31:07;100933.31;;;12.71;100.00
57990;BME280;58373;51.824;5.564;2023-04-28T12:33:33;100943.72;;;12.71;100.00
57990;BME280;58373;51.824;5.564;2023-04-28T12:36:01;100933.88;;;12.74;100.00
57990;BME280;58373;51.824;5.564;2023-04-28T12:38:26;100938.66;;;12.69;100.00
57990;BME280;58373;51.824;5.564;2023-04-28T12:40:52;100936.06;;;12.69;100.00
57990;BME280;58373;51.824;5.564;2023-04-28T12:43:18;100934.13;;;12.71;100.00
57990;BME280;58373;51.824;5.564;2023-04-28T12:45:43;100935.50;;;12.75;100.00
57990;BME280;58373;51.824;5.564;2023-04-28T12:48:08;100934.97;;;12.82;100.00
57990;BME280;58373;51.824;5.564;2023-04-28T12:50:34;100934.13;;;12.81;100.00
57990;BME280;58373;51.824;5.564;2023-04-28T12:52:59;100933.03;;;12.84;100.00
57990;BME280;58373;51.824;5.564;2023-04-28T12:55:25;100936.59;;;12.83;100.00
57990;BME280;58373;51.824;5.564;2023-04-28T12:57:51;100938.13;;;12.85;100.00
57990;BME280;58373;51.824;5.564;2023-04-28T13:00:16;100940.41;;;12.79;100.00
57990;BME280;58373;51.824;5.564;2023-04-28T13:02:45;100941.28;;;12.79;100.00
57990;BME280;58373;51.824;5.564;2023-04-28T13:05:10;100942.09;;;12.80;100.00
57990;BME280;58373;51.824;5.564;2023-04-28T13:07:36;100943.19;;;12.87;100.00
57990;BME280;58373;51.824;5.564;2023-04-28T13:10:01;100948.09;;;12.99;100.00
57990;BME280;58373;51.824;5.564;2023-04-28T13:12:26;100936.06;;;13.08;100.00